Thor — WDC2707 — position and weather

sailwx.info

Track history (hours):
 
Tides and Currents Weather Stations Pressure Air Temp Water Temp Dewpoint Dewpoint Depression Visibility Wind Speed Wind Dir Waves Ship Positions

Thor

Owner: Kirby Inland Marine, LP, Houston, TX. More information available from US FCC via Universal Licensing System and Coast Guard Vessel Documentation Center.

Last reported at 2018-Feb-17 01:29 UTC. Time now 2018-Feb-20 13:56 UTC.
Position N 29°33' W 090°28'.

Length 206 m; draft 3 m.

Type: . MMSI: 366996640.

Date/timePositionNaut miles runAvg speedWind from/ knotsBaromVisibWave heightAir tempDewpointWater temp
2018-Feb-17 01:29N 29°33' W 090°28'3 5.9
2018-Feb-17 01:00N 29°34' W 090°31'3 5.7
2018-Feb-17 00:31N 29°34' W 090°34'3 5.1
2018-Feb-17 00:01N 29°35' W 090°37'2 4.3
2018-Feb-16 23:31N 29°36' W 090°39'3 5.8
2018-Feb-16 23:01N 29°37' W 090°42'3 5.4
2018-Feb-16 22:30N 29°34' W 090°43'0 0.1
2018-Feb-16 22:01N 29°34' W 090°43'1 2.3
2018-Feb-16 21:31N 29°34' W 090°44'2 4.9
2018-Feb-16 21:00N 29°32' W 090°46'3 6.4
2018-Feb-16 20:30N 29°32' W 090°50'3 6.1
2018-Feb-16 19:56N 29°33' W 090°54'4 5.6
2018-Feb-16 19:09N 29°35' W 090°58'51 1.2
2018-Feb-15 01:52N 29°51' W 091°55'3 5.4
2018-Feb-15 01:21N 29°50' W 091°58'2 5.3
2018-Feb-15 01:00N 29°50' W 091°60'1 2.7
2018-Feb-15 00:30N 29°49' W 092°01'3 5.6
2018-Feb-15 00:00N 29°48' W 092°04'3 5.9
2018-Feb-14 23:30N 29°47' W 092°07'3 5.5
2018-Feb-14 23:00N 29°47' W 092°10'3 5.4
2018-Feb-14 22:30N 29°48' W 092°13'2 3.4
2018-Feb-14 22:00N 29°48' W 092°15'2 4.2
2018-Feb-14 21:30N 29°49' W 092°17'2 4.4
2018-Feb-14 21:00N 29°50' W 092°19'38 3.1
2018-Feb-14 08:31N 29°56' W 093°03'1 4.8
2018-Feb-14 08:14N 29°56' W 093°04'1 4.8
2018-Feb-14 08:00N 29°56' W 093°06'2 4.9
2018-Feb-14 07:30N 29°56' W 093°09'2 4.0
2018-Feb-14 07:00N 29°57' W 093°10'2 4.8
2018-Feb-14 06:30N 29°59' W 093°12'2 4.6
2018-Feb-14 06:00N 30°01' W 093°14'1 2.9
2018-Feb-14 05:30N 30°02' W 093°15'1 2.7
2018-Feb-14 05:00N 30°03' W 093°16'2 4.2
2018-Feb-14 04:30N 30°05' W 093°17'1 2.3
2018-Feb-14 04:00N 30°06' W 093°18'1 2.2
2018-Feb-14 03:30N 30°06' W 093°19'2 4.4
2018-Feb-14 03:00N 30°04' W 093°21'1 2.8
2018-Feb-14 02:30N 30°04' W 093°22'0 0.1
2018-Feb-14 02:00N 30°04' W 093°22'0 0.2
2018-Feb-14 01:30N 30°04' W 093°22'1 2.5
2018-Feb-14 01:00N 30°04' W 093°24'2 3.9
2018-Feb-14 00:30N 30°04' W 093°26'2 4.5
2018-Feb-14 00:00N 30°04' W 093°29'2 4.4
2018-Feb-13 23:30N 30°04' W 093°31'2 4.7
2018-Feb-13 23:00N 30°04' W 093°34'2 4.9
2018-Feb-13 22:30N 30°03' W 093°37'2 5.0
2018-Feb-13 22:00N 30°04' W 093°40'3 5.1
2018-Feb-13 21:30N 30°03' W 093°43'3 5.0
2018-Feb-13 21:00N 30°01' W 093°45'3 5.3
2018-Feb-13 20:30N 29°60' W 093°47'3 5.6
2018-Feb-13 20:00N 29°59' W 093°50'3 5.7
2018-Feb-13 19:30N 29°56' W 093°52'3 5.9
2018-Feb-13 19:00N 29°54' W 093°54'3 5.6
2018-Feb-13 18:30N 29°52' W 093°56'3 5.3
2018-Feb-13 18:00N 29°50' W 093°57'2 3.6
2018-Feb-13 17:30N 29°49' W 093°59'2 5.0
2018-Feb-13 17:00N 29°47' W 094°01'3 5.1
2018-Feb-13 16:30N 29°46' W 094°04'2 4.8
2018-Feb-13 16:00N 29°44' W 094°06'3 5.0
2018-Feb-13 15:30N 29°42' W 094°08'3 5.2
2018-Feb-13 15:00N 29°41' W 094°11'2 4.8
2018-Feb-13 14:29N 29°40' W 094°13'2 3.6
2018-Feb-13 14:00N 29°39' W 094°15'3 4.9
2018-Feb-13 13:28N 29°38' W 094°18'3 4.7
2018-Feb-13 12:56N 29°37' W 094°20'2 4.6
2018-Feb-13 12:30N 29°36' W 094°22'3 4.2
2018-Feb-13 11:55N 29°35' W 094°25'2 4.0
2018-Feb-13 11:30N 29°34' W 094°26'3 3.6
2018-Feb-13 10:45N 29°32' W 094°29'0 0.4
2018-Feb-13 10:03N 29°32' W 094°29'  
2018-Feb-10 21:08N 29°45' W 095°06'  
2018-Feb-07 08:26N 29°45' W 095°06'2 5.4
2018-Feb-07 07:59N 29°47' W 095°04'  
Track history (hours):
 
Tides and Currents Weather Stations Pressure Air Temp Water Temp Dewpoint Dewpoint Depression Visibility Wind Speed Wind Dir Waves Ship Positions

Thor

Owner: Kirby Inland Marine, LP, Houston, TX. More information available from US FCC via Universal Licensing System and Coast Guard Vessel Documentation Center.

Last reported at 2018-Feb-17 01:29 UTC. Time now 2018-Feb-20 13:56 UTC.
Position N 29°33' W 090°28'.

Length 206 m; draft 3 m.

Type: . MMSI: 366996640.

Date/timePositionNaut miles runAvg speedWind from/ knotsBaromVisibWave heightAir tempDewpointWater temp
2018-Feb-17 01:29N 29°33' W 090°28'3 5.9
2018-Feb-17 01:00N 29°34' W 090°31'3 5.7
2018-Feb-17 00:31N 29°34' W 090°34'3 5.1
2018-Feb-17 00:01N 29°35' W 090°37'2 4.3
2018-Feb-16 23:31N 29°36' W 090°39'3 5.8
2018-Feb-16 23:01N 29°37' W 090°42'3 5.4
2018-Feb-16 22:30N 29°34' W 090°43'0 0.1
2018-Feb-16 22:01N 29°34' W 090°43'1 2.3
2018-Feb-16 21:31N 29°34' W 090°44'2 4.9
2018-Feb-16 21:00N 29°32' W 090°46'3 6.4
2018-Feb-16 20:30N 29°32' W 090°50'3 6.1
2018-Feb-16 19:56N 29°33' W 090°54'4 5.6
2018-Feb-16 19:09N 29°35' W 090°58'51 1.2
2018-Feb-15 01:52N 29°51' W 091°55'3 5.4
2018-Feb-15 01:21N 29°50' W 091°58'2 5.3
2018-Feb-15 01:00N 29°50' W 091°60'1 2.7
2018-Feb-15 00:30N 29°49' W 092°01'3 5.6
2018-Feb-15 00:00N 29°48' W 092°04'3 5.9
2018-Feb-14 23:30N 29°47' W 092°07'3 5.5
2018-Feb-14 23:00N 29°47' W 092°10'3 5.4
2018-Feb-14 22:30N 29°48' W 092°13'2 3.4
2018-Feb-14 22:00N 29°48' W 092°15'2 4.2
2018-Feb-14 21:30N 29°49' W 092°17'2 4.4
2018-Feb-14 21:00N 29°50' W 092°19'38 3.1
2018-Feb-14 08:31N 29°56' W 093°03'1 4.8
2018-Feb-14 08:14N 29°56' W 093°04'1 4.8
2018-Feb-14 08:00N 29°56' W 093°06'2 4.9
2018-Feb-14 07:30N 29°56' W 093°09'2 4.0
2018-Feb-14 07:00N 29°57' W 093°10'2 4.8
2018-Feb-14 06:30N 29°59' W 093°12'2 4.6
2018-Feb-14 06:00N 30°01' W 093°14'1 2.9
2018-Feb-14 05:30N 30°02' W 093°15'1 2.7
2018-Feb-14 05:00N 30°03' W 093°16'2 4.2
2018-Feb-14 04:30N 30°05' W 093°17'1 2.3
2018-Feb-14 04:00N 30°06' W 093°18'1 2.2
2018-Feb-14 03:30N 30°06' W 093°19'2 4.4
2018-Feb-14 03:00N 30°04' W 093°21'1 2.8
2018-Feb-14 02:30N 30°04' W 093°22'0 0.1
2018-Feb-14 02:00N 30°04' W 093°22'0 0.2
2018-Feb-14 01:30N 30°04' W 093°22'1 2.5
2018-Feb-14 01:00N 30°04' W 093°24'2 3.9
2018-Feb-14 00:30N 30°04' W 093°26'2 4.5
2018-Feb-14 00:00N 30°04' W 093°29'2 4.4
2018-Feb-13 23:30N 30°04' W 093°31'2 4.7
2018-Feb-13 23:00N 30°04' W 093°34'2 4.9
2018-Feb-13 22:30N 30°03' W 093°37'2 5.0
2018-Feb-13 22:00N 30°04' W 093°40'3 5.1
2018-Feb-13 21:30N 30°03' W 093°43'3 5.0
2018-Feb-13 21:00N 30°01' W 093°45'3 5.3
2018-Feb-13 20:30N 29°60' W 093°47'3 5.6
2018-Feb-13 20:00N 29°59' W 093°50'3 5.7
2018-Feb-13 19:30N 29°56' W 093°52'3 5.9
2018-Feb-13 19:00N 29°54' W 093°54'3 5.6
2018-Feb-13 18:30N 29°52' W 093°56'3 5.3
2018-Feb-13 18:00N 29°50' W 093°57'2 3.6
2018-Feb-13 17:30N 29°49' W 093°59'2 5.0
2018-Feb-13 17:00N 29°47' W 094°01'3 5.1
2018-Feb-13 16:30N 29°46' W 094°04'2 4.8
2018-Feb-13 16:00N 29°44' W 094°06'3 5.0
2018-Feb-13 15:30N 29°42' W 094°08'3 5.2
2018-Feb-13 15:00N 29°41' W 094°11'2 4.8
2018-Feb-13 14:29N 29°40' W 094°13'2 3.6
2018-Feb-13 14:00N 29°39' W 094°15'3 4.9
2018-Feb-13 13:28N 29°38' W 094°18'3 4.7
2018-Feb-13 12:56N 29°37' W 094°20'2 4.6
2018-Feb-13 12:30N 29°36' W 094°22'3 4.2
2018-Feb-13 11:55N 29°35' W 094°25'2 4.0
2018-Feb-13 11:30N 29°34' W 094°26'3 3.6
2018-Feb-13 10:45N 29°32' W 094°29'0 0.4
2018-Feb-13 10:03N 29°32' W 094°29'  
2018-Feb-10 21:08N 29°45' W 095°06'  
2018-Feb-07 08:26N 29°45' W 095°06'2 5.4
2018-Feb-07 07:59N 29°47' W 095°04'  

Dump ship's entire track history